sensor_id;sensor_type;location;lat;lon;timestamp;pressure;altitude;pressure_sealevel;temperature;humidity
39105;BME280;46464;51.154;13.812;2022-07-22T00:02:22;99563.50;;;19.03;89.00
39105;BME280;46464;51.154;13.812;2022-07-22T00:04:49;99560.50;;;18.95;88.58
39105;BME280;46464;51.154;13.812;2022-07-22T00:07:16;99567.50;;;18.86;88.09
39105;BME280;46464;51.154;13.812;2022-07-22T00:09:42;99564.91;;;18.73;87.25
39105;BME280;46464;51.154;13.812;2022-07-22T00:12:11;99568.94;;;18.56;86.16
39105;BME280;46464;51.154;13.812;2022-07-22T00:14:37;99576.16;;;18.44;86.21
39105;BME280;46464;51.154;13.812;2022-07-22T00:17:04;99574.81;;;18.38;86.61
39105;BME280;46464;51.154;13.812;2022-07-22T00:19:30;99580.59;;;18.34;87.08
39105;BME280;46464;51.154;13.812;2022-07-22T00:21:57;99570.81;;;18.31;87.38
39105;BME280;46464;51.154;13.812;2022-07-22T00:24:23;99572.91;;;18.28;88.09
39105;BME280;46464;51.154;13.812;2022-07-22T00:26:50;99583.16;;;18.24;88.28
39105;BME280;46464;51.154;13.812;2022-07-22T00:29:16;99576.22;;;18.20;88.77
39105;BME280;46464;51.154;13.812;2022-07-22T00:31:43;99573.97;;;18.14;88.38
39105;BME280;46464;51.154;13.812;2022-07-22T00:34:09;99573.44;;;18.09;88.45
39105;BME280;46464;51.154;13.812;2022-07-22T00:36:36;99566.59;;;18.03;89.07
39105;BME280;46464;51.154;13.812;2022-07-22T00:39:03;99571.28;;;18.01;89.46
39105;BME280;46464;51.154;13.812;2022-07-22T00:41:30;99574.69;;;17.91;88.93
39105;BME280;46464;51.154;13.812;2022-07-22T00:44:00;99571.13;;;17.78;86.98
39105;BME280;46464;51.154;13.812;2022-07-22T00:46:29;99570.03;;;17.81;87.83
39105;BME280;46464;51.154;13.812;2022-07-22T00:48:56;99579.63;;;17.73;88.34
39105;BME280;46464;51.154;13.812;2022-07-22T00:51:25;99581.16;;;17.65;89.33
39105;BME280;46464;51.154;13.812;2022-07-22T00:53:52;99580.44;;;17.63;90.00
39105;BME280;46464;51.154;13.812;2022-07-22T00:56:19;99584.13;;;17.62;89.87
39105;BME280;46464;51.154;13.812;2022-07-22T00:58:48;99577.91;;;17.59;90.16
39105;BME280;46464;51.154;13.812;2022-07-22T01:01:15;99574.44;;;17.57;90.24
39105;BME280;46464;51.154;13.812;2022-07-22T01:03:42;99576.53;;;17.54;90.25
39105;BME280;46464;51.154;13.812;2022-07-22T01:06:15;99572.09;;;17.53;90.04
39105;BME280;46464;51.154;13.812;2022-07-22T01:08:42;99569.44;;;17.51;89.70
39105;BME280;46464;51.154;13.812;2022-07-22T01:11:11;99577.00;;;17.48;89.88
39105;BME280;46464;51.154;13.812;2022-07-22T01:13:38;99576.34;;;17.44;89.90
39105;BME280;46464;51.154;13.812;2022-07-22T01:16:06;99576.44;;;17.42;90.45
39105;BME280;46464;51.154;13.812;2022-07-22T01:18:33;99576.53;;;17.41;90.73
39105;BME280;46464;51.154;13.812;2022-07-22T01:21:00;99575.25;;;17.34;91.13
39105;BME280;46464;51.154;13.812;2022-07-22T01:23:27;99568.75;;;17.23;91.16
39105;BME280;46464;51.154;13.812;2022-07-22T01:25:53;99570.81;;;17.20;90.93
39105;BME280;46464;51.154;13.812;2022-07-22T01:28:22;99572.69;;;17.19;90.71
39105;BME280;46464;51.154;13.812;2022-07-22T01:30:48;99571.13;;;17.15;91.29
39105;BME280;46464;51.154;13.812;2022-07-22T01:33:20;99578.44;;;17.15;91.56
39105;BME280;46464;51.154;13.812;2022-07-22T01:35:47;99585.59;;;17.16;91.47
39105;BME280;46464;51.154;13.812;2022-07-22T01:38:14;99580.06;;;17.17;91.72
39105;BME280;46464;51.154;13.812;2022-07-22T01:40:41;99584.41;;;17.20;91.81
39105;BME280;46464;51.154;13.812;2022-07-22T01:43:08;99583.31;;;17.22;91.87
39105;BME280;46464;51.154;13.812;2022-07-22T01:45:35;99586.03;;;17.22;92.47
39105;BME280;46464;51.154;13.812;2022-07-22T01:48:02;99586.91;;;17.23;92.22
39105;BME280;46464;51.154;13.812;2022-07-22T01:50:29;99590.69;;;17.20;92.06
39105;BME280;46464;51.154;13.812;2022-07-22T01:52:56;99579.94;;;17.19;92.40
39105;BME280;46464;51.154;13.812;2022-07-22T01:55:23;99581.16;;;17.15;92.49
39105;BME280;46464;51.154;13.812;2022-07-22T01:57:49;99573.13;;;17.13;92.55
39105;BME280;46464;51.154;13.812;2022-07-22T02:00:16;99584.94;;;17.12;92.72
39105;BME280;46464;51.154;13.812;2022-07-22T02:02:43;99583.22;;;17.11;93.21
39105;BME280;46464;51.154;13.812;2022-07-22T02:05:09;99583.22;;;17.11;92.99
39105;BME280;46464;51.154;13.812;2022-07-22T02:07:36;99578.75;;;17.10;92.57
39105;BME280;46464;51.154;13.812;2022-07-22T02:10:04;99582.44;;;17.09;92.70
39105;BME280;46464;51.154;13.812;2022-07-22T02:12:31;99584.28;;;17.08;92.98
39105;BME280;46464;51.154;13.812;2022-07-22T02:14:57;99585.38;;;17.06;92.84
39105;BME280;46464;51.154;13.812;2022-07-22T02:17:25;99577.38;;;17.04;93.10
39105;BME280;46464;51.154;13.812;2022-07-22T02:19:52;99583.00;;;17.01;93.04
39105;BME280;46464;51.154;13.812;2022-07-22T02:22:18;99583.09;;;17.00;93.08
39105;BME280;46464;51.154;13.812;2022-07-22T02:24:45;99582.22;;;16.99;93.31
39105;BME280;46464;51.154;13.812;2022-07-22T02:27:11;99584.94;;;16.99;93.28
39105;BME280;46464;51.154;13.812;2022-07-22T02:29:38;99586.69;;;17.00;92.94
39105;BME280;46464;51.154;13.812;2022-07-22T02:32:04;99585.69;;;17.01;92.91
39105;BME280;46464;51.154;13.812;2022-07-22T02:34:31;99589.31;;;17.02;92.93
39105;BME280;46464;51.154;13.812;2022-07-22T02:36:58;99593.00;;;17.01;92.96
39105;BME280;46464;51.154;13.812;2022-07-22T02:39:24;99586.69;;;17.00;92.81
39105;BME280;46464;51.154;13.812;2022-07-22T02:41:51;99584.19;;;16.97;93.02
39105;BME280;46464;51.154;13.812;2022-07-22T02:44:17;99589.94;;;16.92;93.08
39105;BME280;46464;51.154;13.812;2022-07-22T02:46:44;99596.34;;;16.91;93.30
39105;BME280;46464;51.154;13.812;2022-07-22T02:49:11;99593.63;;;16.91;93.35
39105;BME280;46464;51.154;13.812;2022-07-22T02:51:38;99599.06;;;16.91;93.50
39105;BME280;46464;51.154;13.812;2022-07-22T02:54:05;99602.66;;;16.92;93.35
39105;BME280;46464;51.154;13.812;2022-07-22T02:56:31;99600.78;;;16.92;93.36
39105;BME280;46464;51.154;13.812;2022-07-22T02:58:58;99603.50;;;16.92;93.42
39105;BME280;46464;51.154;13.812;2022-07-22T03:01:25;99600.00;;;16.90;93.44
39105;BME280;46464;51.154;13.812;2022-07-22T03:03:52;99608.25;;;16.89;93.92
39105;BME280;46464;51.154;13.812;2022-07-22T03:06:19;99613.91;;;16.86;93.63
39105;BME280;46464;51.154;13.812;2022-07-22T03:08:47;99609.56;;;16.83;93.80
39105;BME280;46464;51.154;13.812;2022-07-22T03:11:13;99617.69;;;16.83;93.61
39105;BME280;46464;51.154;13.812;2022-07-22T03:13:40;99622.34;;;16.81;93.78
39105;BME280;46464;51.154;13.812;2022-07-22T03:16:08;99629.53;;;16.82;93.85
39105;BME280;46464;51.154;13.812;2022-07-22T03:18:34;99631.34;;;16.82;93.82
39105;BME280;46464;51.154;13.812;2022-07-22T03:21:01;99628.63;;;16.82;93.81
39105;BME280;46464;51.154;13.812;2022-07-22T03:23:29;99631.25;;;16.83;94.00
39105;BME280;46464;51.154;13.812;2022-07-22T03:25:56;99628.88;;;16.78;93.94
39105;BME280;46464;51.154;13.812;2022-07-22T03:28:23;99633.75;;;16.73;94.32
39105;BME280;46464;51.154;13.812;2022-07-22T03:30:50;99633.28;;;16.67;94.38
39105;BME280;46464;51.154;13.812;2022-07-22T03:33:16;99638.81;;;16.65;94.42
39105;BME280;46464;51.154;13.812;2022-07-22T03:35:43;99638.94;;;16.64;95.06
39105;BME280;46464;51.154;13.812;2022-07-22T03:38:09;99642.50;;;16.64;94.38
39105;BME280;46464;51.154;13.812;2022-07-22T03:40:36;99637.97;;;16.65;94.29
39105;BME280;46464;51.154;13.812;2022-07-22T03:43:02;99636.00;;;16.67;94.22
39105;BME280;46464;51.154;13.812;2022-07-22T03:45:29;99640.44;;;16.68;94.30
39105;BME280;46464;51.154;13.812;2022-07-22T03:47:55;99636.88;;;16.67;95.09
39105;BME280;46464;51.154;13.812;2022-07-22T03:50:24;99634.25;;;16.66;95.00
39105;BME280;46464;51.154;13.812;2022-07-22T03:52:51;99634.25;;;16.66;94.88
39105;BME280;46464;51.154;13.812;2022-07-22T03:55:18;99633.16;;;16.68;94.90
39105;BME280;46464;51.154;13.812;2022-07-22T03:57:44;99630.38;;;16.70;94.67
39105;BME280;46464;51.154;13.812;2022-07-22T04:00:11;99625.69;;;16.72;94.98
39105;BME280;46464;51.154;13.812;2022-07-22T04:02:38;99631.03;;;16.73;95.36
39105;BME280;46464;51.154;13.812;2022-07-22T04:05:04;99626.25;;;16.77;95.00
39105;BME280;46464;51.154;13.812;2022-07-22T04:07:31;99629.59;;;16.81;95.50
39105;BME280;46464;51.154;13.812;2022-07-22T04:09:58;99631.16;;;16.85;94.86
39105;BME280;46464;51.154;13.812;2022-07-22T04:12:33;99632.56;;;16.90;94.28
39105;BME280;46464;51.154;13.812;2022-07-22T04:15:00;99639.44;;;16.96;94.33
39105;BME280;46464;51.154;13.812;2022-07-22T04:17:26;99632.81;;;17.00;94.36
39105;BME280;46464;51.154;13.812;2022-07-22T04:19:53;99629.66;;;17.06;94.53
39105;BME280;46464;51.154;13.812;2022-07-22T04:22:19;99633.81;;;17.12;94.41
39105;BME280;46464;51.154;13.812;2022-07-22T04:24:58;99643.34;;;17.18;94.54
39105;BME280;46464;51.154;13.812;2022-07-22T04:27:25;99639.47;;;17.22;94.54
39105;BME280;46464;51.154;13.812;2022-07-22T04:29:52;99639.13;;;17.26;94.04
39105;BME280;46464;51.154;13.812;2022-07-22T04:32:19;99631.63;;;17.30;94.15
39105;BME280;46464;51.154;13.812;2022-07-22T04:34:46;99635.88;;;17.34;94.16
39105;BME280;46464;51.154;13.812;2022-07-22T04:37:12;99640.75;;;17.42;93.96
39105;BME280;46464;51.154;13.812;2022-07-22T04:39:39;99636.50;;;17.51;93.65
39105;BME280;46464;51.154;13.812;2022-07-22T04:42:05;99633.34;;;17.57;93.31
39105;BME280;46464;51.154;13.812;2022-07-22T04:44:32;99642.56;;;17.67;93.52
39105;BME280;46464;51.154;13.812;2022-07-22T04:46:58;99645.38;;;17.79;93.88
39105;BME280;46464;51.154;13.812;2022-07-22T04:49:33;99632.44;;;17.95;93.25
39105;BME280;46464;51.154;13.812;2022-07-22T04:52:00;99633.91;;;18.12;92.68
39105;BME280;46464;51.154;13.812;2022-07-22T04:54:27;99631.25;;;18.23;92.40
39105;BME280;46464;51.154;13.812;2022-07-22T04:56:54;99633.88;;;18.36;91.68
39105;BME280;46464;51.154;13.812;2022-07-22T04:59:21;99636.03;;;18.44;91.25
39105;BME280;46464;51.154;13.812;2022-07-22T05:01:49;99635.22;;;18.55;90.26
39105;BME280;46464;51.154;13.812;2022-07-22T05:04:16;99638.22;;;18.63;90.41
39105;BME280;46464;51.154;13.812;2022-07-22T05:06:43;99635.03;;;18.69;90.22
39105;BME280;46464;51.154;13.812;2022-07-22T05:09:09;99637.91;;;18.79;88.95
39105;BME280;46464;51.154;13.812;2022-07-22T05:11:36;99633.59;;;18.88;89.16
39105;BME280;46464;51.154;13.812;2022-07-22T05:14:03;99637.50;;;18.97;88.34
39105;BME280;46464;51.154;13.812;2022-07-22T05:16:29;99637.13;;;19.01;87.68
39105;BME280;46464;51.154;13.812;2022-07-22T05:18:56;99647.16;;;19.12;87.61
39105;BME280;46464;51.154;13.812;2022-07-22T05:21:23;99629.22;;;19.21;87.07
39105;BME280;46464;51.154;13.812;2022-07-22T05:23:49;99634.09;;;19.29;87.07
39105;BME280;46464;51.154;13.812;2022-07-22T05:26:16;99639.53;;;19.40;86.76
39105;BME280;46464;51.154;13.812;2022-07-22T05:28:43;99640.78;;;19.59;85.96
39105;BME280;46464;51.154;13.812;2022-07-22T05:31:09;99632.38;;;19.96;83.68
39105;BME280;46464;51.154;13.812;2022-07-22T05:33:36;99630.75;;;20.70;82.72
39105;BME280;46464;51.154;13.812;2022-07-22T05:36:03;99625.78;;;21.69;77.93
39105;BME280;46464;51.154;13.812;2022-07-22T05:38:32;99627.88;;;22.67;75.04
39105;BME280;46464;51.154;13.812;2022-07-22T05:40:59;99627.78;;;23.35;71.25
39105;BME280;46464;51.154;13.812;2022-07-22T05:43:26;99630.44;;;23.65;67.57
39105;BME280;46464;51.154;13.812;2022-07-22T05:45:52;99631.19;;;23.95;65.58
39105;BME280;46464;51.154;13.812;2022-07-22T05:48:19;99639.69;;;23.54;66.10
39105;BME280;46464;51.154;13.812;2022-07-22T05:50:46;99631.13;;;23.29;66.73
39105;BME280;46464;51.154;13.812;2022-07-22T05:53:14;99631.38;;;23.46;65.85
39105;BME280;46464;51.154;13.812;2022-07-22T05:55:41;99631.63;;;23.52;65.73
39105;BME280;46464;51.154;13.812;2022-07-22T05:58:08;99621.38;;;23.92;64.40
39105;BME280;46464;51.154;13.812;2022-07-22T06:00:34;99628.38;;;24.05;63.43
39105;BME280;46464;51.154;13.812;2022-07-22T06:03:01;99625.53;;;23.96;63.45
39105;BME280;46464;51.154;13.812;2022-07-22T06:05:28;99622.88;;;24.32;61.89
39105;BME280;46464;51.154;13.812;2022-07-22T06:08:04;99624.88;;;24.12;62.35
39105;BME280;46464;51.154;13.812;2022-07-22T06:10:31;99615.69;;;24.04;62.12
39105;BME280;46464;51.154;13.812;2022-07-22T06:12:57;99613.19;;;24.10;62.80
39105;BME280;46464;51.154;13.812;2022-07-22T06:15:24;99611.25;;;24.21;62.28
39105;BME280;46464;51.154;13.812;2022-07-22T06:17:52;99614.88;;;24.57;61.29
39105;BME280;46464;51.154;13.812;2022-07-22T06:20:19;99616.06;;;24.73;60.22
39105;BME280;46464;51.154;13.812;2022-07-22T06:22:45;99616.16;;;24.81;59.72
39105;BME280;46464;51.154;13.812;2022-07-22T06:25:13;99617.56;;;25.11;59.21
39105;BME280;46464;51.154;13.812;2022-07-22T06:27:59;99626.31;;;25.07;59.34
39105;BME280;46464;51.154;13.812;2022-07-22T06:30:26;99621.84;;;25.32;58.04
39105;BME280;46464;51.154;13.812;2022-07-22T06:32:55;99625.19;;;25.18;58.43
39105;BME280;46464;51.154;13.812;2022-07-22T06:35:22;99629.75;;;25.09;58.31
39105;BME280;46464;51.154;13.812;2022-07-22T06:37:51;99628.63;;;25.20;58.31
39105;BME280;46464;51.154;13.812;2022-07-22T06:40:31;99631.13;;;25.31;58.50
39105;BME280;46464;51.154;13.812;2022-07-22T06:42:58;99626.34;;;24.89;59.24
39105;BME280;46464;51.154;13.812;2022-07-22T06:45:25;99623.94;;;25.12;58.41
39105;BME280;46464;51.154;13.812;2022-07-22T06:47:51;99627.28;;;24.79;59.28
39105;BME280;46464;51.154;13.812;2022-07-22T06:50:18;99625.97;;;24.84;59.03
39105;BME280;46464;51.154;13.812;2022-07-22T06:52:44;99624.22;;;25.01;58.68
39105;BME280;46464;51.154;13.812;2022-07-22T06:55:11;99625.91;;;25.02;58.60
39105;BME280;46464;51.154;13.812;2022-07-22T06:57:38;99629.81;;;24.91;58.98
39105;BME280;46464;51.154;13.812;2022-07-22T07:00:05;99629.56;;;24.84;58.83
39105;BME280;46464;51.154;13.812;2022-07-22T07:02:33;99636.84;;;23.93;61.32
39105;BME280;46464;51.154;13.812;2022-07-22T07:05:00;99623.13;;;23.93;61.52
39105;BME280;46464;51.154;13.812;2022-07-22T07:07:27;99631.75;;;23.89;61.96
39105;BME280;46464;51.154;13.812;2022-07-22T07:09:54;99625.63;;;24.32;61.27
39105;BME280;46464;51.154;13.812;2022-07-22T07:12:21;99625.88;;;24.93;59.62
39105;BME280;46464;51.154;13.812;2022-07-22T07:14:48;99617.94;;;25.17;59.45
39105;BME280;46464;51.154;13.812;2022-07-22T07:17:34;99624.00;;;25.20;58.02
39105;BME280;46464;51.154;13.812;2022-07-22T07:20:01;99620.47;;;25.28;58.31
39105;BME280;46464;51.154;13.812;2022-07-22T07:22:28;99618.94;;;24.89;59.52
39105;BME280;46464;51.154;13.812;2022-07-22T07:24:54;99623.19;;;24.47;59.18
39105;BME280;46464;51.154;13.812;2022-07-22T07:27:23;99617.25;;;24.06;60.55
39105;BME280;46464;51.154;13.812;2022-07-22T07:29:50;99628.06;;;23.80;61.40
39105;BME280;46464;51.154;13.812;2022-07-22T07:32:17;99621.09;;;23.48;62.67
39105;BME280;46464;51.154;13.812;2022-07-22T07:34:43;99622.03;;;23.66;62.86
39105;BME280;46464;51.154;13.812;2022-07-22T07:37:10;99614.88;;;23.93;61.94
39105;BME280;46464;51.154;13.812;2022-07-22T07:39:38;99617.31;;;23.96;62.13
39105;BME280;46464;51.154;13.812;2022-07-22T07:42:05;99618.41;;;23.76;61.34
39105;BME280;46464;51.154;13.812;2022-07-22T07:44:31;99620.19;;;23.67;61.98
39105;BME280;46464;51.154;13.812;2022-07-22T07:46:58;99614.78;;;23.47;62.96
39105;BME280;46464;51.154;13.812;2022-07-22T07:49:24;99617.09;;;23.42;62.74
39105;BME280;46464;51.154;13.812;2022-07-22T07:51:51;99606.16;;;23.32;63.04
39105;BME280;46464;51.154;13.812;2022-07-22T07:54:18;99610.28;;;23.46;63.12
39105;BME280;46464;51.154;13.812;2022-07-22T07:56:48;99608.72;;;23.44;63.21
39105;BME280;46464;51.154;13.812;2022-07-22T07:59:17;99613.56;;;23.60;63.21
39105;BME280;46464;51.154;13.812;2022-07-22T08:01:54;99614.19;;;23.81;63.11
39105;BME280;46464;51.154;13.812;2022-07-22T08:04:25;99609.72;;;23.80;62.13
39105;BME280;46464;51.154;13.812;2022-07-22T08:07:05;99615.03;;;23.54;62.44
39105;BME280;46464;51.154;13.812;2022-07-22T08:09:33;99611.84;;;23.59;62.86
39105;BME280;46464;51.154;13.812;2022-07-22T08:12:02;99617.75;;;23.54;63.57
39105;BME280;46464;51.154;13.812;2022-07-22T08:14:30;99616.72;;;23.65;62.87
39105;BME280;46464;51.154;13.812;2022-07-22T08:16:57;99617.88;;;23.90;62.86
39105;BME280;46464;51.154;13.812;2022-07-22T08:19:24;99619.75;;;23.99;61.82
39105;BME280;46464;51.154;13.812;2022-07-22T08:21:51;99619.69;;;24.09;61.78
39105;BME280;46464;51.154;13.812;2022-07-22T08:24:17;99621.66;;;24.17;61.21
39105;BME280;46464;51.154;13.812;2022-07-22T08:26:44;99619.25;;;24.32;60.34
39105;BME280;46464;51.154;13.812;2022-07-22T08:29:10;99612.22;;;24.47;59.86
39105;BME280;46464;51.154;13.812;2022-07-22T08:31:37;99604.53;;;24.51;58.91
39105;BME280;46464;51.154;13.812;2022-07-22T08:34:04;99612.66;;;24.61;59.41
39105;BME280;46464;51.154;13.812;2022-07-22T08:36:31;99609.72;;;24.72;59.26
39105;BME280;46464;51.154;13.812;2022-07-22T08:38:57;99605.72;;;24.85;58.25
39105;BME280;46464;51.154;13.812;2022-07-22T08:41:25;99605.63;;;24.94;58.50
39105;BME280;46464;51.154;13.812;2022-07-22T08:43:52;99613.09;;;25.10;58.54
39105;BME280;46464;51.154;13.812;2022-07-22T08:46:19;99617.38;;;25.05;57.43
39105;BME280;46464;51.154;13.812;2022-07-22T08:48:46;99605.72;;;24.85;58.07
39105;BME280;46464;51.154;13.812;2022-07-22T08:51:15;99605.91;;;24.91;59.17
39105;BME280;46464;51.154;13.812;2022-07-22T08:53:42;99601.50;;;25.25;58.82
39105;BME280;46464;51.154;13.812;2022-07-22T08:56:08;99603.97;;;25.28;57.60
39105;BME280;46464;51.154;13.812;2022-07-22T08:58:38;99603.38;;;25.42;56.66
39105;BME280;46464;51.154;13.812;2022-07-22T09:01:05;99610.44;;;25.45;56.76
39105;BME280;46464;51.154;13.812;2022-07-22T09:03:32;99609.56;;;25.18;56.39
39105;BME280;46464;51.154;13.812;2022-07-22T09:06:00;99605.19;;;25.07;57.44
39105;BME280;46464;51.154;13.812;2022-07-22T09:08:26;99604.78;;;24.76;57.28
39105;BME280;46464;51.154;13.812;2022-07-22T09:10:53;99605.72;;;24.67;57.90
39105;BME280;46464;51.154;13.812;2022-07-22T09:13:19;99601.44;;;24.90;57.66
39105;BME280;46464;51.154;13.812;2022-07-22T09:15:49;99601.72;;;25.05;57.06
39105;BME280;46464;51.154;13.812;2022-07-22T09:18:16;99589.81;;;25.23;56.91
39105;BME280;46464;51.154;13.812;2022-07-22T09:20:43;99594.63;;;25.21;55.60
39105;BME280;46464;51.154;13.812;2022-07-22T09:23:12;99600.44;;;25.18;56.15
39105;BME280;46464;51.154;13.812;2022-07-22T09:25:40;99600.06;;;25.12;56.08
39105;BME280;46464;51.154;13.812;2022-07-22T09:30:46;99599.09;;;25.22;55.25
39105;BME280;46464;51.154;13.812;2022-07-22T09:33:14;99584.31;;;25.23;54.80
39105;BME280;46464;51.154;13.812;2022-07-22T09:35:41;99600.03;;;25.30;54.67
39105;BME280;46464;51.154;13.812;2022-07-22T09:38:16;99594.75;;;25.19;55.46
39105;BME280;46464;51.154;13.812;2022-07-22T09:40:45;99600.91;;;25.13;55.71
39105;BME280;46464;51.154;13.812;2022-07-22T09:43:18;99600.63;;;24.98;56.03
39105;BME280;46464;51.154;13.812;2022-07-22T09:45:50;99600.22;;;24.85;56.29
39105;BME280;46464;51.154;13.812;2022-07-22T09:48:19;99590.53;;;24.80;57.15
39105;BME280;46464;51.154;13.812;2022-07-22T09:50:48;99599.81;;;24.79;57.14
39105;BME280;46464;51.154;13.812;2022-07-22T09:53:17;99592.81;;;24.85;57.15
39105;BME280;46464;51.154;13.812;2022-07-22T09:55:45;99592.47;;;25.06;57.29
39105;BME280;46464;51.154;13.812;2022-07-22T09:58:12;99591.16;;;25.19;57.41
39105;BME280;46464;51.154;13.812;2022-07-22T10:00:40;99592.97;;;25.28;55.60
39105;BME280;46464;51.154;13.812;2022-07-22T10:03:12;99591.75;;;25.57;54.31
39105;BME280;46464;51.154;13.812;2022-07-22T10:05:41;99588.47;;;25.88;52.14
39105;BME280;46464;51.154;13.812;2022-07-22T10:08:08;99587.16;;;26.08;51.10
39105;BME280;46464;51.154;13.812;2022-07-22T10:10:36;99578.81;;;26.35;50.17
39105;BME280;46464;51.154;13.812;2022-07-22T10:13:05;99582.41;;;26.52;48.86
39105;BME280;46464;51.154;13.812;2022-07-22T10:15:33;99588.09;;;26.50;49.39
39105;BME280;46464;51.154;13.812;2022-07-22T10:18:05;99581.66;;;26.08;50.29
39105;BME280;46464;51.154;13.812;2022-07-22T10:20:34;99580.50;;;25.85;50.87
39105;BME280;46464;51.154;13.812;2022-07-22T10:23:06;99582.75;;;25.81;51.64
39105;BME280;46464;51.154;13.812;2022-07-22T10:25:55;99576.69;;;25.77;51.43
39105;BME280;46464;51.154;13.812;2022-07-22T10:28:30;99575.81;;;25.69;51.18
39105;BME280;46464;51.154;13.812;2022-07-22T10:31:22;99575.81;;;25.69;51.42
39105;BME280;46464;51.154;13.812;2022-07-22T10:33:52;99574.84;;;25.78;50.65
39105;BME280;46464;51.154;13.812;2022-07-22T10:36:49;99580.47;;;26.11;50.73
39105;BME280;46464;51.154;13.812;2022-07-22T10:39:15;99583.94;;;26.21;50.47
39105;BME280;46464;51.154;13.812;2022-07-22T10:41:43;99578.94;;;26.17;50.32
39105;BME280;46464;51.154;13.812;2022-07-22T10:44:46;99586.38;;;26.33;51.06
39105;BME280;46464;51.154;13.812;2022-07-22T10:47:58;99576.94;;;26.68;49.37
39105;BME280;46464;51.154;13.812;2022-07-22T10:53:06;99590.72;;;26.68;48.03
39105;BME280;46464;51.154;13.812;2022-07-22T10:55:33;99591.94;;;26.82;49.11
39105;BME280;46464;51.154;13.812;2022-07-22T10:58:08;99587.13;;;26.84;48.21
39105;BME280;46464;51.154;13.812;2022-07-22T11:00:47;99580.69;;;27.17;45.98
39105;BME280;46464;51.154;13.812;2022-07-22T11:03:24;99583.75;;;27.47;47.34
39105;BME280;46464;51.154;13.812;2022-07-22T11:05:51;99587.53;;;27.54;45.74
39105;BME280;46464;51.154;13.812;2022-07-22T11:08:18;99579.06;;;27.56;45.55
39105;BME280;46464;51.154;13.812;2022-07-22T11:10:49;99578.44;;;27.45;46.03
39105;BME280;46464;51.154;13.812;2022-07-22T11:13:32;99584.63;;;27.39;47.60
39105;BME280;46464;51.154;13.812;2022-07-22T11:16:19;99576.00;;;27.42;47.28
39105;BME280;46464;51.154;13.812;2022-07-22T11:21:17;99568.22;;;27.46;47.35
39105;BME280;46464;51.154;13.812;2022-07-22T11:23:47;99571.78;;;27.71;46.41
39105;BME280;46464;51.154;13.812;2022-07-22T11:26:17;99561.59;;;27.72;47.07
39105;BME280;46464;51.154;13.812;2022-07-22T11:28:44;99562.91;;;27.84;45.67
39105;BME280;46464;51.154;13.812;2022-07-22T11:31:17;99560.19;;;27.76;45.72
39105;BME280;46464;51.154;13.812;2022-07-22T11:33:48;99554.59;;;27.92;45.98
39105;BME280;46464;51.154;13.812;2022-07-22T11:36:15;99552.00;;;27.91;44.81
39105;BME280;46464;51.154;13.812;2022-07-22T11:38:44;99548.22;;;27.83;44.88
39105;BME280;46464;51.154;13.812;2022-07-22T11:41:18;99552.38;;;27.88;45.46
39105;BME280;46464;51.154;13.812;2022-07-22T11:43:47;99551.38;;;27.80;44.42
39105;BME280;46464;51.154;13.812;2022-07-22T11:46:16;99544.72;;;27.66;45.36
39105;BME280;46464;51.154;13.812;2022-07-22T11:48:44;99543.09;;;27.80;45.03
39105;BME280;46464;51.154;13.812;2022-07-22T11:51:12;99549.25;;;28.22;43.72
39105;BME280;46464;51.154;13.812;2022-07-22T11:53:48;99534.72;;;28.28;42.03
39105;BME280;46464;51.154;13.812;2022-07-22T11:56:14;99538.31;;;28.06;43.15
39105;BME280;46464;51.154;13.812;2022-07-22T11:58:44;99541.41;;;28.11;43.67
39105;BME280;46464;51.154;13.812;2022-07-22T12:01:14;99527.09;;;28.07;42.70
39105;BME280;46464;51.154;13.812;2022-07-22T12:03:44;99521.19;;;28.02;42.91
39105;BME280;46464;51.154;13.812;2022-07-22T12:06:17;99523.31;;;28.00;42.64
39105;BME280;46464;51.154;13.812;2022-07-22T12:08:55;99517.59;;;28.01;43.23
39105;BME280;46464;51.154;13.812;2022-07-22T12:11:23;99510.22;;;28.25;42.57
39105;BME280;46464;51.154;13.812;2022-07-22T12:13:53;99511.50;;;28.38;42.72
39105;BME280;46464;51.154;13.812;2022-07-22T12:16:28;99512.41;;;28.53;43.67
39105;BME280;46464;51.154;13.812;2022-07-22T12:18:58;99512.88;;;28.80;42.90
39105;BME280;46464;51.154;13.812;2022-07-22T12:21:27;99510.00;;;28.73;40.83
39105;BME280;46464;51.154;13.812;2022-07-22T12:24:02;99515.75;;;28.72;40.56
39105;BME280;46464;51.154;13.812;2022-07-22T12:26:46;99517.34;;;28.81;41.30
39105;BME280;46464;51.154;13.812;2022-07-22T12:31:52;99508.13;;;28.89;41.88
39105;BME280;46464;51.154;13.812;2022-07-22T12:34:39;99501.16;;;28.78;40.69
39105;BME280;46464;51.154;13.812;2022-07-22T12:37:13;99502.31;;;28.60;41.21
39105;BME280;46464;51.154;13.812;2022-07-22T12:42:18;99499.34;;;28.85;40.35
39105;BME280;46464;51.154;13.812;2022-07-22T12:45:06;99502.72;;;28.95;39.85
39105;BME280;46464;51.154;13.812;2022-07-22T12:47:49;99496.38;;;28.72;40.12
39105;BME280;46464;51.154;13.812;2022-07-22T12:52:49;99492.50;;;28.96;39.57
39105;BME280;46464;51.154;13.812;2022-07-22T12:55:44;99484.19;;;29.11;39.54
39105;BME280;46464;51.154;13.812;2022-07-22T12:58:12;99499.38;;;29.15;38.09
39105;BME280;46464;51.154;13.812;2022-07-22T13:00:50;99489.72;;;29.11;38.34
39105;BME280;46464;51.154;13.812;2022-07-22T13:03:20;99487.84;;;29.11;38.56
39105;BME280;46464;51.154;13.812;2022-07-22T13:05:57;99480.88;;;29.15;38.08
39105;BME280;46464;51.154;13.812;2022-07-22T13:08:25;99482.66;;;29.23;38.67
39105;BME280;46464;51.154;13.812;2022-07-22T13:11:05;99486.31;;;29.54;37.32
39105;BME280;46464;51.154;13.812;2022-07-22T13:13:31;99487.44;;;29.59;37.75
39105;BME280;46464;51.154;13.812;2022-07-22T13:15:58;99488.69;;;29.57;37.09